Time;durP1;ratioP1;P1;durP2;ratioP2;P2;SDS_P1;SDS_P2;PMS_P1;PMS_P2;Temp;Humidity;BMP_temperature;BMP_pressure;BME280_temperature;BME280_humidity;BME280_pressure;Samples;Min_cycle;Max_cycle;Signal;HPM_P1;HPM_P2
2022/03/20 00:00:37;;;;;;;6.25;2.40;;;;;;;;;;4900996;29;20095;-72
2022/03/20 00:03:09;;;;;;;4.78;1.75;;;;;;;;;;4904054;29;20087;-73
2022/03/20 00:05:38;;;;;;;7.70;2.50;;;;;;;;;;4904971;29;20055;-73
2022/03/20 00:08:09;;;;;;;5.07;2.17;;;;;;;;;;4898903;29;20045;-72
2022/03/20 00:10:36;;;;;;;6.75;2.75;;;;;;;;;;4900232;29;20109;-73
2022/03/20 00:13:06;;;;;;;4.75;2.53;;;;;;;;;;4900022;29;20079;-73
2022/03/20 00:15:40;;;;;;;7.18;2.38;;;;;;;;;;4903676;29;20679;-73
2022/03/20 00:18:08;;;;;;;6.47;2.25;;;;;;;;;;4911023;28;20146;-73
2022/03/20 00:20:35;;;;;;;;;;;;;;;;;;4924565;29;20083;-73
2022/03/20 00:23:08;;;;;;;8.20;2.10;;;;;;;;;;4923212;29;19936;-73
2022/03/20 00:25:35;;;;;;;8.52;2.47;;;;;;;;;;4927852;29;20412;-72
2022/03/20 00:28:02;;;;;;;;;;;;;;;;;;4923067;29;20052;-73
2022/03/20 00:30:28;;;;;;;7.50;2.42;;;;;;;;;;4922592;29;19970;-73
2022/03/20 00:32:55;;;;;;;5.82;2.40;;;;;;;;;;4922004;29;20055;-73
2022/03/20 00:35:21;;;;;;;5.95;2.08;;;;;;;;;;4925136;29;20126;-73
2022/03/20 00:37:48;;;;;;;8.77;2.03;;;;;;;;;;4923864;29;20052;-72
2022/03/20 00:40:15;;;;;;;6.20;2.33;;;;;;;;;;4920626;29;20150;-73
2022/03/20 00:42:41;;;;;;;6.55;2.40;;;;;;;;;;4924526;29;20562;-73
2022/03/20 00:45:08;;;;;;;6.47;2.22;;;;;;;;;;4908564;29;20455;-73
2022/03/20 00:47:34;;;;;;;7.60;2.30;;;;;;;;;;4920114;29;20083;-73
2022/03/20 00:50:08;;;;;;;6.18;2.00;;;;;;;;;;4924019;29;20071;-73
2022/03/20 00:52:34;;;;;;;6.65;2.38;;;;;;;;;;4920039;29;20142;-73
2022/03/20 00:55:01;;;;;;;5.63;2.08;;;;;;;;;;4920489;29;20696;-73
2022/03/20 00:57:28;;;;;;;4.10;2.60;;;;;;;;;;4920872;29;20138;-73
2022/03/20 00:59:54;;;;;;;7.17;2.67;;;;;;;;;;4921167;29;20567;-73
2022/03/20 01:02:21;;;;;;;4.63;2.30;;;;;;;;;;4919220;29;20347;-73
2022/03/20 01:04:51;;;;;;;9.00;3.13;;;;;;;;;;4919472;29;20453;-73
2022/03/20 01:07:17;;;;;;;7.72;2.42;;;;;;;;;;4920977;29;20080;-73
2022/03/20 01:09:44;;;;;;;4.40;2.50;;;;;;;;;;4922223;29;20134;-73
2022/03/20 01:12:17;;;;;;;3.25;1.85;;;;;;;;;;4923399;29;20082;-73
2022/03/20 01:14:44;;;;;;;3.70;2.10;;;;;;;;;;4922448;29;20146;-73
2022/03/20 01:17:10;;;;;;;3.87;2.20;;;;;;;;;;4917795;29;20078;-74
2022/03/20 01:19:37;;;;;;;2.50;1.52;;;;;;;;;;4901723;29;20380;-73
2022/03/20 01:22:04;;;;;;;7.20;1.77;;;;;;;;;;4898922;29;20139;-73
2022/03/20 01:24:30;;;;;;;7.22;2.38;;;;;;;;;;4899805;29;20072;-74
2022/03/20 01:26:57;;;;;;;7.47;2.40;;;;;;;;;;4897771;29;20135;-74
2022/03/20 01:29:24;;;;;;;4.90;2.08;;;;;;;;;;4901826;29;20134;-73
2022/03/20 01:31:50;;;;;;;2.75;1.40;;;;;;;;;;4900436;29;20482;-73
2022/03/20 01:34:17;;;;;;;8.48;2.20;;;;;;;;;;4900419;29;20139;-73
2022/03/20 01:36:44;;;;;;;5.00;2.00;;;;;;;;;;4901208;29;20088;-73
2022/03/20 01:39:10;;;;;;;5.72;2.05;;;;;;;;;;4898686;29;20960;-73
2022/03/20 01:41:38;;;;;;;7.57;2.53;;;;;;;;;;4902542;29;20143;-74
2022/03/20 01:44:04;;;;;;;6.05;2.10;;;;;;;;;;4900874;29;20980;-74
2022/03/20 01:46:31;;;;;;;6.23;2.53;;;;;;;;;;4899534;29;20060;-73
2022/03/20 01:48:58;;;;;;;5.70;2.15;;;;;;;;;;4901083;29;20055;-73
2022/03/20 01:54:11;;;;;;;5.32;2.30;;;;;;;;;;4900519;29;20124;-73
2022/03/20 01:56:41;;;;;;;11.43;2.22;;;;;;;;;;4898875;29;20060;-74
2022/03/20 01:59:08;;;;;;;7.13;2.20;;;;;;;;;;4904625;29;20088;-74
2022/03/20 02:01:35;;;;;;;4.68;2.42;;;;;;;;;;4901214;29;20048;-74
2022/03/20 02:04:02;;;;;;;4.60;1.73;;;;;;;;;;4901380;29;20067;-74
2022/03/20 02:06:28;;;;;;;6.20;2.33;;;;;;;;;;4897018;29;20497;-73
2022/03/20 02:08:57;;;;;;;6.63;2.58;;;;;;;;;;4902707;29;20083;-73
2022/03/20 02:11:26;;;;;;;4.40;2.10;;;;;;;;;;4902106;29;20139;-73
2022/03/20 02:13:53;;;;;;;5.72;2.30;;;;;;;;;;4903143;29;20134;-73
2022/03/20 02:16:20;;;;;;;4.45;2.20;;;;;;;;;;4902750;29;20127;-73
2022/03/20 02:18:48;;;;;;;11.45;2.72;;;;;;;;;;4917232;29;20078;-73
2022/03/20 02:21:17;;;;;;;6.10;2.53;;;;;;;;;;4924709;29;20279;-73
2022/03/20 02:23:44;;;;;;;12.35;3.13;;;;;;;;;;4923507;29;20126;-73
2022/03/20 02:26:11;;;;;;;5.97;2.45;;;;;;;;;;4919534;29;20567;-73
2022/03/20 02:28:37;;;;;;;9.80;2.38;;;;;;;;;;4928005;29;20143;-73
2022/03/20 02:31:06;;;;;;;7.53;2.57;;;;;;;;;;4922936;29;20633;-74
2022/03/20 02:33:32;;;;;;;6.30;2.38;;;;;;;;;;4923747;29;20339;-73
2022/03/20 02:35:58;;;;;;;11.10;2.30;;;;;;;;;;4922802;29;20103;-73
2022/03/20 02:38:30;;;;;;;7.05;2.45;;;;;;;;;;4922078;29;20107;-72
2022/03/20 02:40:57;;;;;;;7.57;2.22;;;;;;;;;;4919967;29;20130;-73
2022/03/20 02:43:29;;;;;;;6.78;2.28;;;;;;;;;;4920855;29;20143;-73
2022/03/20 02:45:58;;;;;;;7.93;2.70;;;;;;;;;;4922337;29;20067;-73
2022/03/20 02:48:25;;;;;;;7.95;2.42;;;;;;;;;;4921622;29;20080;-73
2022/03/20 02:50:51;;;;;;;3.67;2.05;;;;;;;;;;4921591;29;20079;-73
2022/03/20 02:53:17;;;;;;;4.33;2.30;;;;;;;;;;4921768;29;20079;-73
2022/03/20 02:55:45;;;;;;;10.48;2.63;;;;;;;;;;4924161;29;20386;-73
2022/03/20 02:58:16;;;;;;;6.38;2.53;;;;;;;;;;4921020;29;20056;-73
2022/03/20 03:00:49;;;;;;;6.93;2.63;;;;;;;;;;4923503;29;20117;-73
2022/03/20 03:03:16;;;;;;;12.88;2.70;;;;;;;;;;4920729;29;20051;-73
2022/03/20 03:05:44;;;;;;;5.28;2.13;;;;;;;;;;4921992;29;20656;-74
2022/03/20 03:11:03;;;;;;;7.75;2.35;;;;;;;;;;4919843;29;20130;-73
2022/03/20 03:13:34;;;;;;;5.03;2.35;;;;;;;;;;4920121;29;20464;-73
2022/03/20 03:16:02;;;;;;;7.18;2.38;;;;;;;;;;4923458;29;20051;-74
2022/03/20 03:18:29;;;;;;;3.08;1.95;;;;;;;;;;4921856;28;20095;-73
2022/03/20 03:20:56;;;;;;;6.88;2.58;;;;;;;;;;4918757;29;20116;-74
2022/03/20 03:23:25;;;;;;;2.78;1.70;;;;;;;;;;4920150;29;20056;-74
2022/03/20 03:25:52;;;;;;;5.55;2.53;;;;;;;;;;4922916;29;20079;-74
2022/03/20 03:28:19;;;;;;;6.85;2.78;;;;;;;;;;4921341;29;20111;-74
2022/03/20 03:30:46;;;;;;;5.43;1.92;;;;;;;;;;4922383;29;20056;-74
2022/03/20 03:33:14;;;;;;;8.57;2.55;;;;;;;;;;4921389;29;20475;-73
2022/03/20 03:35:44;;;;;;;;;;;;;;;;;;4920141;29;20151;-73
2022/03/20 03:38:15;;;;;;;3.78;2.45;;;;;;;;;;4923556;29;19997;-74
2022/03/20 03:40:44;;;;;;;6.13;2.40;;;;;;;;;;4921072;29;20143;-73
2022/03/20 03:43:20;;;;;;;3.80;2.50;;;;;;;;;;4922824;29;20504;-73
2022/03/20 03:45:53;;;;;;;5.63;2.22;;;;;;;;;;4921648;29;20143;-73
2022/03/20 03:48:20;;;;;;;8.88;2.33;;;;;;;;;;4920286;29;20058;-73
2022/03/20 03:50:47;;;;;;;5.80;2.00;;;;;;;;;;4922843;29;20109;-73
2022/03/20 03:53:14;;;;;;;3.88;1.92;;;;;;;;;;4920865;29;20390;-73
2022/03/20 03:55:44;;;;;;;10.07;2.28;;;;;;;;;;4920700;29;20063;-73
2022/03/20 03:58:12;;;;;;;11.68;2.60;;;;;;;;;;4920017;29;20063;-73
2022/03/20 04:00:40;;;;;;;8.05;2.20;;;;;;;;;;4922233;29;20090;-73
2022/03/20 04:03:06;;;;;;;3.50;2.20;;;;;;;;;;4921665;29;20106;-74
2022/03/20 04:05:34;;;;;;;7.57;2.40;;;;;;;;;;4921438;29;20063;-74
2022/03/20 04:08:06;;;;;;;4.75;2.58;;;;;;;;;;4918972;29;20331;-73
2022/03/20 04:10:32;;;;;;;5.53;2.47;;;;;;;;;;4916314;29;20143;-74
2022/03/20 04:12:58;;;;;;;6.57;2.55;;;;;;;;;;4921802;29;20072;-74
2022/03/20 04:15:25;;;;;;;4.40;2.20;;;;;;;;;;4920104;29;20082;-74
2022/03/20 04:17:52;;;;;;;7.55;2.60;;;;;;;;;;4919912;29;20726;-73
2022/03/20 04:20:19;;;;;;;4.53;2.42;;;;;;;;;;4900045;29;20147;-74
2022/03/20 04:25:39;;;;;;;5.60;2.15;;;;;;;;;;4904077;29;20160;-73
2022/03/20 04:28:09;;;;;;;6.50;2.30;;;;;;;;;;4902252;29;20108;-73
2022/03/20 04:30:36;;;;;;;8.88;2.75;;;;;;;;;;4900897;29;20056;-74
2022/03/20 04:33:03;;;;;;;5.60;2.40;;;;;;;;;;4885719;29;20135;-73
2022/03/20 04:35:31;;;;;;;7.43;2.63;;;;;;;;;;4900968;29;20140;-73
2022/03/20 04:38:01;;;;;;;9.75;2.50;;;;;;;;;;4900645;29;20044;-74
2022/03/20 04:40:28;;;;;;;5.28;1.95;;;;;;;;;;4903695;29;20052;-74
2022/03/20 04:42:54;;;;;;;6.35;2.00;;;;;;;;;;4901674;29;20483;-74
2022/03/20 04:45:21;;;;;;;7.10;2.05;;;;;;;;;;4900377;29;20147;-73
2022/03/20 04:58:54;;;;;;;6.32;2.60;;;;;;;;;;4901719;29;20147;-73
2022/03/20 05:01:24;;;;;;;8.05;2.60;;;;;;;;;;4899673;29;20079;-73
2022/03/20 05:03:50;;;;;;;7.57;3.93;;;;;;;;;;4898217;29;20051;-74
2022/03/20 05:06:17;;;;;;;5.32;2.55;;;;;;;;;;4900877;29;20340;-73
2022/03/20 05:08:44;;;;;;;7.22;2.45;;;;;;;;;;4903262;29;20143;-73
2022/03/20 05:14:00;;;;;;;6.63;2.60;;;;;;;;;;4900860;29;20131;-73
2022/03/20 05:16:26;;;;;;;8.03;2.53;;;;;;;;;;4902061;29;20539;-73
2022/03/20 05:18:53;;;;;;;8.40;2.67;;;;;;;;;;4911299;28;20111;-73
2022/03/20 05:21:24;;;;;;;5.47;2.03;;;;;;;;;;4919972;29;20134;-73
2022/03/20 05:23:55;;;;;;;13.65;2.80;;;;;;;;;;4921659;29;20051;-73
2022/03/20 05:26:22;;;;;;;4.70;2.08;;;;;;;;;;4918575;29;20143;-73
2022/03/20 05:28:48;;;;;;;5.67;2.37;;;;;;;;;;4917448;29;20574;-73
2022/03/20 05:31:15;;;;;;;6.97;2.53;;;;;;;;;;4917436;29;20047;-73
2022/03/20 05:33:44;;;;;;;8.80;2.70;;;;;;;;;;4920464;29;20307;-73
2022/03/20 05:36:11;;;;;;;5.45;2.00;;;;;;;;;;4918694;29;20083;-73
2022/03/20 05:38:38;;;;;;;3.38;2.20;;;;;;;;;;4917724;29;20090;-74
2022/03/20 05:43:52;;;;;;;5.43;2.23;;;;;;;;;;4921103;29;20071;-74
2022/03/20 05:46:19;;;;;;;8.10;2.78;;;;;;;;;;4922011;29;20055;-74
2022/03/20 05:48:46;;;;;;;5.40;2.40;;;;;;;;;;4916404;29;20052;-73
2022/03/20 05:51:15;;;;;;;5.45;2.08;;;;;;;;;;4918311;29;20055;-73
2022/03/20 05:53:41;;;;;;;5.63;2.20;;;;;;;;;;4918511;29;20052;-74
2022/03/20 05:58:57;;;;;;;5.93;2.20;;;;;;;;;;4920315;29;20126;-73
2022/03/20 06:01:24;;;;;;;5.72;2.05;;;;;;;;;;4921567;29;20134;-75
2022/03/20 06:03:50;;;;;;;4.60;2.23;;;;;;;;;;4922039;29;20096;-73
2022/03/20 06:06:17;;;;;;;5.60;1.83;;;;;;;;;;4921124;29;20083;-72
2022/03/20 06:08:43;;;;;;;6.93;2.85;;;;;;;;;;4919318;29;20559;-74
2022/03/20 06:11:10;;;;;;;4.35;2.20;;;;;;;;;;4919686;29;20178;-74
2022/03/20 06:13:37;;;;;;;10.10;2.47;;;;;;;;;;4917875;29;20183;-74
2022/03/20 06:16:06;;;;;;;8.95;2.40;;;;;;;;;;4918952;29;20083;-74
2022/03/20 06:18:33;;;;;;;4.78;2.47;;;;;;;;;;4913492;28;20055;-73
2022/03/20 06:20:59;;;;;;;5.82;2.47;;;;;;;;;;4901948;29;20551;-74
2022/03/20 06:23:27;;;;;;;6.40;1.83;;;;;;;;;;4897486;29;20509;-74
2022/03/20 06:25:54;;;;;;;7.28;2.42;;;;;;;;;;4899228;29;20412;-74
2022/03/20 06:28:20;;;;;;;5.00;2.03;;;;;;;;;;4899835;29;20231;-74
2022/03/20 06:30:47;;;;;;;13.10;2.45;;;;;;;;;;4898916;29;20352;-74
2022/03/20 06:33:15;;;;;;;11.10;2.55;;;;;;;;;;4895495;29;20131;-73
2022/03/20 06:35:42;;;;;;;8.90;2.47;;;;;;;;;;4908316;29;20160;-74
2022/03/20 06:38:13;;;;;;;9.88;2.55;;;;;;;;;;4897278;29;20131;-73
2022/03/20 06:40:40;;;;;;;8.53;2.30;;;;;;;;;;4899615;29;20058;-73
2022/03/20 06:43:06;;;;;;;6.88;2.38;;;;;;;;;;4900413;29;20140;-74
2022/03/20 06:45:33;;;;;;;5.53;1.70;;;;;;;;;;4898307;29;20420;-73
2022/03/20 06:48:03;;;;;;;7.65;2.10;;;;;;;;;;4899298;29;20045;-73
2022/03/20 06:50:29;;;;;;;13.15;2.35;;;;;;;;;;4901538;29;20576;-72
2022/03/20 06:53:03;;;;;;;7.15;2.83;;;;;;;;;;4899243;29;20048;-73
2022/03/20 06:55:31;;;;;;;8.48;2.55;;;;;;;;;;4905425;29;20143;-73
2022/03/20 06:57:58;;;;;;;3.47;1.77;;;;;;;;;;4888961;29;20139;-72
2022/03/20 07:00:31;;;;;;;;;;;;;;;;;;4901000;29;20159;-73
2022/03/20 07:03:00;;;;;;;7.25;2.50;;;;;;;;;;4903844;29;19997;-72
2022/03/20 07:05:30;;;;;;;9.45;2.95;;;;;;;;;;4904932;29;20071;-73
2022/03/20 07:07:56;;;;;;;7.05;2.53;;;;;;;;;;4902998;29;20374;-72
2022/03/20 07:10:25;;;;;;;9.43;2.50;;;;;;;;;;4903899;29;20144;-72
2022/03/20 07:13:48;;;;;;;7.40;2.50;;;;;;;;;;4905035;29;20048;-72
2022/03/20 07:15:46;;;;;;;7.60;2.17;;;;;;;;;;4904169;29;20142;-71
2022/03/20 07:18:14;;;;;;;5.18;2.35;;;;;;;;;;4905720;28;20789;-71
2022/03/20 07:20:42;;;;;;;7.40;2.40;;;;;;;;;;4920076;29;20083;-71
2022/03/20 07:23:09;;;;;;;8.48;2.22;;;;;;;;;;4920818;29;20138;-71
2022/03/20 07:31:06;;;;;;;7.65;2.20;;;;;;;;;;4922067;29;20583;-71
2022/03/20 07:33:33;;;;;;;8.73;2.47;;;;;;;;;;4906054;29;20075;-71
2022/03/20 07:36:00;;;;;;;9.97;2.20;;;;;;;;;;4917288;29;20343;-71
2022/03/20 07:38:27;;;;;;;8.30;2.40;;;;;;;;;;4921284;29;20135;-71
2022/03/20 07:40:54;;;;;;;6.10;2.33;;;;;;;;;;4919577;29;20044;-71
2022/03/20 07:43:20;;;;;;;13.87;2.87;;;;;;;;;;4920349;29;20146;-70
2022/03/20 07:45:46;;;;;;;7.55;2.30;;;;;;;;;;4902889;29;20496;-71
2022/03/20 07:48:13;;;;;;;6.47;2.40;;;;;;;;;;4920534;29;20540;-70
2022/03/20 07:50:42;;;;;;;9.30;2.60;;;;;;;;;;4907083;29;20131;-70
2022/03/20 07:53:09;;;;;;;7.45;2.30;;;;;;;;;;4921038;29;20118;-70
2022/03/20 07:55:36;;;;;;;6.60;2.58;;;;;;;;;;4920379;29;20952;-70
2022/03/20 07:58:02;;;;;;;6.90;2.00;;;;;;;;;;4919721;29;20138;-69
2022/03/20 08:00:28;;;;;;;8.25;2.30;;;;;;;;;;4918887;29;20052;-69
2022/03/20 08:02:56;;;;;;;7.80;2.10;;;;;;;;;;4920169;29;20551;-70
2022/03/20 08:05:25;;;;;;;6.70;2.25;;;;;;;;;;4919901;29;20394;-69
2022/03/20 08:07:51;;;;;;;8.73;2.70;;;;;;;;;;4919040;29;20112;-70
2022/03/20 08:10:18;;;;;;;10.05;2.45;;;;;;;;;;4920613;29;20987;-69
2022/03/20 08:12:44;;;;;;;9.43;2.75;;;;;;;;;;4916876;29;20151;-70
2022/03/20 08:15:15;;;;;;;7.65;2.60;;;;;;;;;;4919197;29;20139;-69
2022/03/20 08:17:43;;;;;;;5.32;2.30;;;;;;;;;;4918862;29;20127;-70
2022/03/20 08:20:10;;;;;;;5.93;2.55;;;;;;;;;;4920927;29;20170;-70
2022/03/20 08:22:37;;;;;;;5.13;2.42;;;;;;;;;;4924210;29;20388;-70
2022/03/20 08:25:04;;;;;;;4.68;2.10;;;;;;;;;;4905987;29;20850;-69
2022/03/20 08:27:31;;;;;;;6.03;2.45;;;;;;;;;;4920041;29;20082;-69
2022/03/20 08:30:00;;;;;;;6.78;2.20;;;;;;;;;;4919984;29;20167;-69
2022/03/20 08:32:27;;;;;;;7.22;2.20;;;;;;;;;;4919327;29;20098;-69
2022/03/20 08:34:54;;;;;;;3.75;2.03;;;;;;;;;;4921323;29;20056;-69
2022/03/20 08:37:21;;;;;;;6.25;2.65;;;;;;;;;;4916944;29;20159;-69
2022/03/20 08:39:48;;;;;;;4.15;2.40;;;;;;;;;;4910014;29;20516;-69
2022/03/20 08:42:14;;;;;;;9.20;2.83;;;;;;;;;;4917914;29;20514;-69
2022/03/20 08:44:42;;;;;;;6.60;2.08;;;;;;;;;;4917921;29;20142;-69
2022/03/20 08:47:09;;;;;;;5.93;2.03;;;;;;;;;;4919481;29;20282;-69
2022/03/20 08:49:35;;;;;;;5.28;2.25;;;;;;;;;;4920190;29;20551;-70
2022/03/20 08:52:02;;;;;;;3.88;2.15;;;;;;;;;;4917008;29;20511;-70
2022/03/20 08:54:29;;;;;;;5.82;2.17;;;;;;;;;;4919739;29;20146;-69
2022/03/20 08:56:56;;;;;;;5.80;2.00;;;;;;;;;;4919802;29;20706;-70
2022/03/20 08:59:22;;;;;;;5.53;2.00;;;;;;;;;;4919582;29;20084;-69
2022/03/20 09:01:49;;;;;;;4.10;1.80;;;;;;;;;;4919296;29;20575;-69
2022/03/20 09:04:16;;;;;;;6.00;2.00;;;;;;;;;;4921625;29;20119;-69
2022/03/20 09:06:44;;;;;;;7.10;2.05;;;;;;;;;;4917451;29;20143;-69
2022/03/20 09:09:13;;;;;;;8.73;2.38;;;;;;;;;;4912266;29;20052;-69
2022/03/20 09:11:41;;;;;;;3.63;1.98;;;;;;;;;;4912810;29;20208;-67
2022/03/20 09:14:08;;;;;;;8.77;2.28;;;;;;;;;;4911615;29;20531;-67
2022/03/20 09:19:21;;;;;;;3.58;1.70;;;;;;;;;;4909434;29;20899;-85
2022/03/20 09:21:47;;;;;;;3.20;1.73;;;;;;;;;;4930026;28;20066;-84
2022/03/20 09:24:15;;;;;;;4.53;1.95;;;;;;;;;;4943290;28;20463;-84
2022/03/20 09:26:42;;;;;;;4.28;1.75;;;;;;;;;;4943869;23;20180;-85
2022/03/20 09:29:10;;;;;;;4.10;1.60;;;;;;;;;;4873576;29;20144;-84
2022/03/20 09:31:36;;;;;;;4.97;1.83;;;;;;;;;;4880039;29;20324;-84
2022/03/20 09:34:08;;;;;;;4.13;1.73;;;;;;;;;;4871123;29;20065;-84
2022/03/20 09:36:36;;;;;;;3.78;1.80;;;;;;;;;;4873050;29;20055;-84
2022/03/20 09:39:03;;;;;;;8.77;2.33;;;;;;;;;;4870049;29;20052;-83
2022/03/20 09:41:30;;;;;;;6.30;2.00;;;;;;;;;;4871566;29;20079;-85
2022/03/20 09:43:57;;;;;;;5.18;1.80;;;;;;;;;;4883858;29;20083;-83
2022/03/20 09:46:25;;;;;;;6.68;2.10;;;;;;;;;;4882000;29;20085;-84
2022/03/20 09:48:53;;;;;;;3.60;1.90;;;;;;;;;;4868409;29;20124;-84
2022/03/20 09:51:19;;;;;;;3.95;1.90;;;;;;;;;;4865175;29;20637;-85
2022/03/20 09:53:46;;;;;;;8.52;1.90;;;;;;;;;;4871544;29;20052;-84
2022/03/20 09:56:12;;;;;;;9.23;1.83;;;;;;;;;;4869463;29;20139;-83
2022/03/20 09:58:39;;;;;;;3.70;1.87;;;;;;;;;;4867650;29;20092;-84
2022/03/20 10:01:12;;;;;;;4.50;1.90;;;;;;;;;;4867825;29;20135;-84
2022/03/20 10:03:39;;;;;;;5.13;1.50;;;;;;;;;;4881623;29;20276;-84
2022/03/20 10:06:19;;;;;;;8.88;1.60;;;;;;;;;;4867565;29;20140;-84
2022/03/20 10:09:04;;;;;;;10.05;1.92;;;;;;;;;;4881303;29;20128;-84
2022/03/20 10:11:36;;;;;;;3.67;1.90;;;;;;;;;;4887157;29;20084;-83
2022/03/20 10:14:06;;;;;;;5.15;1.88;;;;;;;;;;4881846;29;20076;-83
2022/03/20 10:16:33;;;;;;;3.63;1.83;;;;;;;;;;4882212;29;20052;-85
2022/03/20 10:19:00;;;;;;;6.00;2.20;;;;;;;;;;4884217;29;20282;-84
2022/03/20 10:21:43;;;;;;;6.63;2.10;;;;;;;;;;4864465;29;20564;-83
2022/03/20 10:24:16;;;;;;;6.35;2.28;;;;;;;;;;4881376;29;20658;-86
2022/03/20 10:26:43;;;;;;;4.32;1.92;;;;;;;;;;4856687;29;20144;-86
2022/03/20 10:29:16;;;;;;;4.07;1.77;;;;;;;;;;4872881;29;20052;-84
2022/03/20 10:31:53;;;;;;;5.45;2.45;;;;;;;;;;4883623;29;20199;-84
2022/03/20 10:34:20;;;;;;;4.90;2.10;;;;;;;;;;4861084;29;20049;-85
2022/03/20 10:36:48;;;;;;;7.25;2.10;;;;;;;;;;4875353;29;20057;-84
2022/03/20 10:39:19;;;;;;;5.85;1.67;;;;;;;;;;4877072;29;20100;-84
2022/03/20 10:41:46;;;;;;;4.35;1.80;;;;;;;;;;4885498;29;20096;-84
2022/03/20 10:44:31;;;;;;;6.20;1.80;;;;;;;;;;4876009;29;20055;-85
2022/03/20 10:47:04;;;;;;;6.88;2.15;;;;;;;;;;4873444;29;20190;-84
2022/03/20 10:49:32;;;;;;;8.13;2.42;;;;;;;;;;4869359;29;20486;-85
2022/03/20 10:52:02;;;;;;;4.00;1.30;;;;;;;;;;4887968;29;20473;-85
2022/03/20 10:54:58;;;;;;;4.63;1.50;;;;;;;;;;4886855;29;20139;-84
2022/03/20 10:57:34;;;;;;;5.45;1.92;;;;;;;;;;4863058;29;20052;-84
2022/03/20 11:00:02;;;;;;;4.72;1.80;;;;;;;;;;4870068;29;20135;-83
2022/03/20 11:02:29;;;;;;;3.38;1.45;;;;;;;;;;4887245;29;20512;-84
2022/03/20 11:04:56;;;;;;;3.95;1.50;;;;;;;;;;4869868;29;20490;-84
2022/03/20 11:07:23;;;;;;;6.43;1.75;;;;;;;;;;4874708;29;20465;-84
2022/03/20 11:09:51;;;;;;;4.82;1.70;;;;;;;;;;4872594;29;21289;-86
2022/03/20 11:12:26;;;;;;;5.13;1.63;;;;;;;;;;4891505;29;20080;-84
2022/03/20 11:14:57;;;;;;;7.18;1.50;;;;;;;;;;4892930;29;20056;-85
2022/03/20 11:17:26;;;;;;;3.17;1.25;;;;;;;;;;4888443;29;20466;-85
2022/03/20 11:19:53;;;;;;;4.65;1.42;;;;;;;;;;4874340;29;20576;-85
2022/03/20 11:22:21;;;;;;;6.57;1.90;;;;;;;;;;4872137;29;20135;-84
2022/03/20 11:24:50;;;;;;;3.35;1.40;;;;;;;;;;4893152;29;20056;-84
2022/03/20 11:27:23;;;;;;;3.88;1.45;;;;;;;;;;4892276;28;20075;-85
2022/03/20 11:29:53;;;;;;;4.40;1.55;;;;;;;;;;4904371;29;20584;-85
2022/03/20 11:32:20;;;;;;;3.00;1.27;;;;;;;;;;4904029;29;20139;-84
2022/03/20 11:34:48;;;;;;;5.10;1.63;;;;;;;;;;4906389;29;20127;-85
2022/03/20 11:37:16;;;;;;;4.25;1.42;;;;;;;;;;4904481;29;20060;-84
2022/03/20 11:40:00;;;;;;;6.32;1.77;;;;;;;;;;4907236;29;20137;-84
2022/03/20 11:42:28;;;;;;;5.97;1.38;;;;;;;;;;4912000;29;20072;-84
2022/03/20 11:45:07;;;;;;;5.95;1.30;;;;;;;;;;4900581;29;20139;-83
2022/03/20 11:47:37;;;;;;;3.17;1.15;;;;;;;;;;4894465;29;20086;-84
2022/03/20 11:50:16;;;;;;;2.25;1.30;;;;;;;;;;4893471;29;20518;-86
2022/03/20 11:52:44;;;;;;;4.88;1.58;;;;;;;;;;4909415;29;20082;-84
2022/03/20 11:55:24;;;;;;;2.47;1.23;;;;;;;;;;4896632;29;20722;-84
2022/03/20 11:57:50;;;;;;;4.05;1.45;;;;;;;;;;4895288;29;20514;-86
2022/03/20 12:00:19;;;;;;;4.38;1.70;;;;;;;;;;4899454;29;20065;-85
2022/03/20 12:02:50;;;;;;;4.60;1.50;;;;;;;;;;4906022;29;20527;-85
2022/03/20 12:05:21;;;;;;;2.65;1.27;;;;;;;;;;4911810;29;20131;-84
2022/03/20 12:08:11;;;;;;;5.07;1.08;;;;;;;;;;4912721;29;20123;-85
2022/03/20 12:10:44;;;;;;;4.07;1.40;;;;;;;;;;4914095;29;20587;-85
2022/03/20 12:13:40;;;;;;;5.82;2.10;;;;;;;;;;4899796;29;20542;-85
2022/03/20 12:16:09;;;;;;;6.30;1.98;;;;;;;;;;4890090;29;20487;-85
2022/03/20 12:18:54;;;;;;;11.55;3.85;;;;;;;;;;4897610;29;20138;-84
2022/03/20 12:21:42;;;;;;;8.93;2.83;;;;;;;;;;4897199;29;20131;-84
2022/03/20 12:24:27;;;;;;;6.38;2.55;;;;;;;;;;4909563;29;20064;-85
2022/03/20 12:26:54;;;;;;;7.30;2.78;;;;;;;;;;4911128;29;20063;-85
2022/03/20 12:29:31;;;;;;;5.90;1.55;;;;;;;;;;4892628;29;20149;-85
2022/03/20 12:31:59;;;;;;;3.80;1.70;;;;;;;;;;4911814;29;20080;-85
2022/03/20 12:34:26;;;;;;;;;;;;;;;;;;4893861;29;20059;-85
2022/03/20 12:36:53;;;;;;;4.63;1.48;;;;;;;;;;4899056;29;20035;-84
2022/03/20 12:39:40;;;;;;;4.32;1.60;;;;;;;;;;4896962;29;20075;-85
2022/03/20 12:42:17;;;;;;;2.45;1.52;;;;;;;;;;4894286;29;20058;-84
2022/03/20 12:44:49;;;;;;;4.97;1.70;;;;;;;;;;4908570;29;20083;-86
2022/03/20 12:47:20;;;;;;;3.17;1.38;;;;;;;;;;4897024;29;20571;-85
2022/03/20 12:49:47;;;;;;;2.53;1.40;;;;;;;;;;4908892;29;20134;-86
2022/03/20 12:52:14;;;;;;;;;;;;;;;;;;4907723;29;20055;-84
2022/03/20 12:54:40;;;;;;;3.83;1.40;;;;;;;;;;4903961;29;20398;-85
2022/03/20 12:57:07;;;;;;;3.42;1.40;;;;;;;;;;4893875;29;20135;-84
2022/03/20 12:59:34;;;;;;;3.13;1.30;;;;;;;;;;4889630;29;20591;-85
2022/03/20 13:02:04;;;;;;;2.53;1.38;;;;;;;;;;4906779;29;20137;-85
2022/03/20 13:04:32;;;;;;;1.90;1.08;;;;;;;;;;4906940;29;20059;-85
2022/03/20 13:06:58;;;;;;;3.53;1.35;;;;;;;;;;4907613;29;20154;-86
2022/03/20 13:09:25;;;;;;;2.65;1.08;;;;;;;;;;4892926;29;20063;-84
2022/03/20 13:11:58;;;;;;;1.42;0.80;;;;;;;;;;4904830;29;20849;-84
2022/03/20 13:14:26;;;;;;;3.33;1.10;;;;;;;;;;4905880;29;20060;-84
2022/03/20 13:16:54;;;;;;;3.17;1.15;;;;;;;;;;4906418;29;20059;-86
2022/03/20 13:19:39;;;;;;;2.00;1.20;;;;;;;;;;4891090;29;20139;-85
2022/03/20 13:22:09;;;;;;;2.33;0.98;;;;;;;;;;4908854;29;20467;-85
2022/03/20 13:24:38;;;;;;;1.33;0.70;;;;;;;;;;4906570;29;20060;-85
2022/03/20 13:27:06;;;;;;;2.03;0.80;;;;;;;;;;4908048;29;20511;-85
2022/03/20 13:29:32;;;;;;;;;;;;;;;;;;4918265;29;20040;-86
2022/03/20 13:32:03;;;;;;;0.65;0.63;;;;;;;;;;4901732;29;19970;-85
2022/03/20 13:34:33;;;;;;;2.95;0.70;;;;;;;;;;4909140;29;20059;-85
2022/03/20 13:37:00;;;;;;;;;;;;;;;;;;4882697;29;21384;-86
2022/03/20 13:39:27;;;;;;;0.77;0.60;;;;;;;;;;4891427;29;19986;-85
2022/03/20 13:41:55;;;;;;;3.13;1.10;;;;;;;;;;4903240;29;20619;-85
2022/03/20 13:44:21;;;;;;;1.52;0.80;;;;;;;;;;4892567;29;20075;-85
2022/03/20 13:46:48;;;;;;;1.55;0.70;;;;;;;;;;4888093;29;20142;-85
2022/03/20 13:49:16;;;;;;;0.93;0.60;;;;;;;;;;4884095;29;20789;-86
2022/03/20 13:51:45;;;;;;;6.35;2.22;;;;;;;;;;4903710;29;20194;-86
2022/03/20 13:54:22;;;;;;;4.32;3.00;;;;;;;;;;4884984;29;20232;-85
2022/03/20 13:57:03;;;;;;;1.27;0.85;;;;;;;;;;4906316;29;20052;-86
2022/03/20 13:59:31;;;;;;;4.13;1.50;;;;;;;;;;4914998;29;20098;-86
2022/03/20 14:01:58;;;;;;;2.25;1.23;;;;;;;;;;4898307;29;20135;-85
2022/03/20 14:04:25;;;;;;;1.80;0.75;;;;;;;;;;4909027;29;20075;-85
2022/03/20 14:06:57;;;;;;;1.20;0.75;;;;;;;;;;4907529;29;20060;-85
2022/03/20 14:09:35;;;;;;;1.38;0.90;;;;;;;;;;4887435;29;20778;-85
2022/03/20 14:12:20;;;;;;;2.58;0.80;;;;;;;;;;4908827;29;20066;-84
2022/03/20 14:14:47;;;;;;;1.38;0.95;;;;;;;;;;4891491;29;20133;-85
2022/03/20 14:17:14;;;;;;;0.90;0.70;;;;;;;;;;4888937;29;20056;-86
2022/03/20 14:19:44;;;;;;;1.30;0.90;;;;;;;;;;4905125;29;20146;-86
2022/03/20 14:22:11;;;;;;;1.45;0.70;;;;;;;;;;4905697;29;20305;-86
2022/03/20 14:24:54;;;;;;;2.28;1.00;;;;;;;;;;4905037;29;20062;-86
2022/03/20 14:27:27;;;;;;;1.45;0.73;;;;;;;;;;4887750;29;20539;-86
2022/03/20 14:40:56;;;;;;;1.92;0.70;;;;;;;;;;4907702;29;21338;-85
2022/03/20 14:43:29;;;;;;;1.65;0.68;;;;;;;;;;4894126;29;20217;-84
2022/03/20 14:45:57;;;;;;;1.05;0.55;;;;;;;;;;4910399;29;20280;-86
2022/03/20 14:48:24;;;;;;;1.30;0.80;;;;;;;;;;4910984;29;20143;-86
2022/03/20 14:50:50;;;;;;;0.80;0.70;;;;;;;;;;4907945;29;21308;-86
2022/03/20 14:53:24;;;;;;;2.17;0.80;;;;;;;;;;4895110;29;20154;-86
2022/03/20 14:55:51;;;;;;;1.92;0.75;;;;;;;;;;4906176;29;20422;-85
2022/03/20 14:58:20;;;;;;;1.42;0.73;;;;;;;;;;4911901;29;20075;-86
2022/03/20 15:00:47;;;;;;;2.30;0.85;;;;;;;;;;4919589;29;20120;-85
2022/03/20 15:03:14;;;;;;;2.00;0.88;;;;;;;;;;4908306;29;20052;-86
2022/03/20 15:05:44;;;;;;;2.72;1.10;;;;;;;;;;4901550;29;20100;-85
2022/03/20 15:11:25;;;;;;;2.53;0.90;;;;;;;;;;4920430;29;20055;-86
2022/03/20 15:13:53;;;;;;;1.98;1.00;;;;;;;;;;4900304;29;20521;-86
2022/03/20 15:16:21;;;;;;;2.50;1.10;;;;;;;;;;4897773;29;20083;-84
2022/03/20 15:18:48;;;;;;;1.92;1.08;;;;;;;;;;4895567;29;20059;-86
2022/03/20 15:21:15;;;;;;;1.42;0.65;;;;;;;;;;4910391;29;20055;-86
2022/03/20 15:23:43;;;;;;;2.63;1.40;;;;;;;;;;4907981;29;20602;-86
2022/03/20 15:26:09;;;;;;;1.35;0.90;;;;;;;;;;4912886;29;20079;-86
2022/03/20 15:28:36;;;;;;;0.90;0.73;;;;;;;;;;4894111;29;20150;-87
2022/03/20 15:31:05;;;;;;;2.50;1.20;;;;;;;;;;4914290;29;20047;-87
2022/03/20 15:33:39;;;;;;;1.08;0.80;;;;;;;;;;4907016;29;20047;-87
2022/03/20 15:36:10;;;;;;;1.85;1.00;;;;;;;;;;4905016;29;20103;-87
2022/03/20 15:38:38;;;;;;;1.75;0.93;;;;;;;;;;4925760;29;20075;-87
2022/03/20 15:41:06;;;;;;;2.22;0.75;;;;;;;;;;4905122;29;20048;-87
2022/03/20 15:43:33;;;;;;;2.38;1.10;;;;;;;;;;4899920;29;20480;-88
2022/03/20 15:46:00;;;;;;;2.13;1.20;;;;;;;;;;4903597;29;20095;-86